ADDS METAR Data INFO
IDs: Format: Raw Decoded Include TAF

Data at: 0643 UTC 23 Feb 2018

KDQH 230635Z AUTO 00000KT 10SM CLR 17/16 A3041 RMK AO2
KDQH 230615Z AUTO 00000KT 10SM CLR 17/17 A3041 RMK AO2
KDQH 230555Z AUTO 00000KT 10SM CLR 17/17 A3041 RMK AO2
KDQH 230535Z AUTO 00000KT 10SM CLR 17/17 A3042 RMK AO2
KDQH 230515Z AUTO 00000KT 10SM CLR 17/17 A3042 RMK AO2
KDQH 230455Z AUTO 00000KT 10SM CLR 18/17 A3043 RMK AO2
KDQH 230435Z AUTO 00000KT 10SM CLR 18/17 A3043 RMK AO2
KDQH 230415Z AUTO 00000KT 10SM CLR 19/17 A3043 RMK AO2
KDQH 230355Z AUTO 00000KT 10SM CLR 19/16 A3042 RMK AO2
KDQH 230335Z AUTO 00000KT 10SM CLR 20/16 A3043 RMK AO2
KDQH 230315Z AUTO 00000KT 10SM CLR 20/16 A3042 RMK AO2
KDQH 230255Z AUTO 00000KT 10SM CLR 20/16 A3042 RMK AO2
KDQH 230235Z AUTO 14005KT 10SM CLR 21/16 A3042 RMK AO2
KDQH 230215Z AUTO 14003KT 10SM CLR 21/16 A3041 RMK AO2
KDQH 230155Z AUTO 13003KT 10SM CLR 21/16 A3041 RMK AO2
KDQH 230135Z AUTO 00000KT 10SM CLR 22/16 A3041 RMK AO2
KDQH 230115Z AUTO 13003KT 10SM CLR 22/16 A3040 RMK AO2
KDQH 230055Z AUTO 11004KT 10SM SCT060 22/15 A3040 RMK AO2
KDQH 230035Z AUTO 00000KT 10SM CLR 22/15 A3039 RMK AO2
KDQH 230015Z AUTO 00000KT 10SM SCT055 22/15 A3039 RMK AO2
KDQH 222355Z AUTO 00000KT 10SM SCT055 23/15 A3038 RMK AO2
KDQH 222335Z AUTO 00000KT 10SM SCT055 24/14 A3038 RMK AO2
KDQH 222315Z AUTO 07003KT 10SM SCT055 25/13 A3038 RMK AO2
KDQH 222255Z AUTO 08004KT 10SM CLR 26/13 A3037 RMK AO2
KDQH 222235Z AUTO 08005KT 10SM SCT050 26/13 A3037 RMK AO2
KDQH 222215Z AUTO 06008KT 10SM BKN050 26/13 A3037 RMK AO2
KDQH 222155Z AUTO 07006KT 10SM BKN050 27/13 A3037 RMK AO2
KDQH 222135Z AUTO 07006KT 10SM OVC050 27/13 A3037 RMK AO2
KDQH 222115Z AUTO 08005KT 10SM BKN050 27/14 A3038 RMK AO2
KDQH 222055Z AUTO 07005KT 10SM BKN050 27/14 A3038 RMK AO2
KDQH 222035Z AUTO 09005KT 10SM BKN050 28/14 A3038 RMK AO2
KDQH 222015Z AUTO 15003KT 10SM BKN050 27/14 A3038 RMK AO2
KDQH 221955Z AUTO 00000KT 10SM SCT049 26/13 A3039 RMK AO2
KDQH 221935Z AUTO 11004KT 10SM BKN049 26/15 A3040 RMK AO2
KDQH 221915Z AUTO 11003KT 10SM BKN049 26/15 A3041 RMK AO2
KDQH 221855Z AUTO 14003KT 10SM BKN047 25/15 A3041 RMK AO2
KDQH 221835Z AUTO 10004KT 10SM SCT036 BKN043 BKN048 26/15 A3042 RMK AO2
KDQH 221815Z AUTO 00000KT 10SM SCT043 26/17 A3043 RMK AO2
KDQH 221755Z AUTO 15003KT 10SM OVC043 25/17 A3045 RMK AO2
KDQH 221735Z AUTO 00000KT 10SM SCT035 OVC044 23/17 A3046 RMK AO2
KDQH 221715Z AUTO 00000KT 10SM OVC045 23/17 A3047 RMK AO2
KDQH 221655Z AUTO 00000KT 10SM OVC045 23/17 A3047 RMK AO2
KDQH 221635Z AUTO 00000KT 10SM OVC043 23/18 A3049 RMK AO2
KDQH 221615Z AUTO 15003KT 10SM SCT025 SCT031 OVC041 22/18 A3049 RMK AO2
KDQH 221555Z AUTO 00000KT 10SM SCT025 OVC043 22/18 A3050 RMK AO2
KDQH 221535Z AUTO 16004KT 10SM SCT016 OVC043 22/18 A3050 RMK AO2
KDQH 221515Z AUTO 18003KT 10SM SCT016 BKN034 OVC040 22/18 A3050 RMK AO2
KDQH 221455Z AUTO 19004KT 10SM SCT014 OVC034 22/18 A3050 RMK AO2 LTG DSNT NW
KDQH 221440Z AUTO 17004KT 10SM BKN014 BKN022 OVC032 22/18 A3050 RMK AO2
KDQH 221415Z AUTO 17003KT 10SM BKN012 OVC017 21/19 A3049 RMK AO2
KDQH 221355Z AUTO 00000KT 10SM BKN017 OVC027 21/19 A3048 RMK AO2
KDQH 221335Z AUTO 16003KT 10SM BKN017 BKN021 OVC027 21/19 A3047 RMK AO2 LTG DSNT NW
KDQH 221315Z AUTO 00000KT 10SM OVC018 20/19 A3047 RMK AO2
KDQH 221255Z AUTO 00000KT 10SM OVC016 20/19 A3046 RMK AO2
KDQH 221235Z AUTO 00000KT 10SM OVC014 20/18 A3046 RMK AO2
KDQH 221215Z AUTO 00000KT 10SM OVC014 20/18 A3045 RMK AO2
KDQH 221155Z AUTO 00000KT 10SM OVC014 20/18 A3044 RMK AO2 LTG DSNT W
KDQH 221135Z AUTO 17003KT 10SM OVC014 20/18 A3044 RMK AO2
KDQH 221115Z AUTO 17005KT 10SM OVC014 20/19 A3043 RMK AO2
KDQH 221055Z AUTO 17003KT 10SM OVC016 20/19 A3042 RMK AO2
KDQH 221035Z AUTO 16006KT 10SM OVC016 20/19 A3042 RMK AO2
KDQH 221015Z AUTO 18003KT 10SM OVC016 20/20 A3042 RMK AO2
KDQH 220955Z AUTO 17003KT 10SM OVC016 20/20 A3041 RMK AO2
KDQH 220935Z AUTO 18003KT 10SM SCT010 OVC016 20/20 A3041 RMK AO2
KDQH 220915Z AUTO 00000KT 10SM BKN010 OVC015 20/20 A3041 RMK AO2 LTG DSNT W
KDQH 220855Z AUTO 00000KT 10SM OVC006 20/20 A3041 RMK AO2 LTG DSNT W
KDQH 220835Z AUTO 18004KT 10SM OVC006 20/20 A3041 RMK AO2
KDQH 220815Z AUTO 19004KT 10SM OVC006 20/20 A3041 RMK AO2
KDQH 220755Z AUTO 17004KT 10SM OVC006 20/20 A3041 RMK AO2
KDQH 220735Z AUTO 17005KT 10SM OVC006 20/20 A3041 RMK AO2
KDQH 220715Z AUTO 17004KT 10SM OVC008 20/20 A3041 RMK AO2
KDQH 220655Z AUTO 16006KT 10SM OVC008 20/20 A3042 RMK AO2
KDQH 220635Z AUTO 16005KT 10SM OVC008 20/20 A3042 RMK AO2
KDQH 220615Z AUTO 15004KT 10SM OVC008 20/20 A3042 RMK AO2
KDQH 220555Z AUTO 15005KT 10SM OVC008 20/20 A3042 RMK AO2
KDQH 220535Z AUTO 14004KT 10SM BKN008 BKN012 20/20 A3042 RMK AO2
KDQH 220515Z AUTO 14004KT 10SM SCT010 20/20 A3041 RMK AO2
KDQH 220455Z AUTO 14004KT 10SM CLR 20/20 A3041 RMK AO2
KDQH 220435Z AUTO 14005KT 10SM CLR 20/19 A3041 RMK AO2
KDQH 220415Z AUTO 13005KT 10SM CLR 21/19 A3041 RMK AO2
KDQH 220355Z AUTO 14006KT 10SM CLR 21/19 A3041 RMK AO2
KDQH 220035Z AUTO 12003KT 10SM CLR 24/17 A3038 RMK AO2
KDQH 220015Z AUTO 13004KT 10SM CLR 24/16 A3037 RMK AO2
KDQH 212355Z AUTO 00000KT 10SM CLR 23/16 A3036 RMK AO2
KDQH 212335Z AUTO 14003KT 10SM CLR 25/16 A3036 RMK AO2
KDQH 212315Z AUTO 16005KT 10SM SCT070 25/16 A3036 RMK AO2
KDQH 212255Z AUTO 00000KT 10SM SCT050 BKN070 26/16 A3036 RMK AO2
KDQH 212235Z AUTO 16004KT 10SM SCT050 SCT070 27/16 A3035 RMK AO2
KDQH 212215Z AUTO 00000KT 10SM SCT050 BKN070 27/16 A3035 RMK AO2
KDQH 212155Z AUTO 14006KT 10SM SCT050 BKN070 27/16 A3035 RMK AO2
KDQH 212135Z AUTO 15004KT 10SM SCT070 28/16 A3035 RMK AO2
KDQH 212115Z AUTO 17004KT 10SM SCT070 28/16 A3035 RMK AO2
KDQH 212055Z AUTO 17004KT 10SM OVC070 27/17 A3035 RMK AO2
KDQH 212035Z AUTO 15005KT 10SM SCT046 SCT055 BKN070 28/17 A3036 RMK AO2
KDQH 212015Z AUTO 15005KT 10SM SCT046 SCT055 BKN070 28/16 A3036 RMK AO2
KDQH 211955Z AUTO 15005KT 10SM BKN070 27/17 A3036 RMK AO2
KDQH 211935Z AUTO 21005KT 10SM BKN070 28/16 A3037 RMK AO2
KDQH 211915Z AUTO 19004KT 10SM SCT060 27/17 A3038 RMK AO2